sensor_id;sensor_type;location;lat;lon;timestamp;pressure;altitude;pressure_sealevel;temperature;humidity
26775;BME280;14362;51.902;7.626;2022-07-23T00:03:15;101256.59;;;17.28;100.00
26775;BME280;14362;51.902;7.626;2022-07-23T00:07:17;101244.38;;;17.24;100.00
26775;BME280;14362;51.902;7.626;2022-07-23T00:11:18;101248.03;;;17.24;100.00
26775;BME280;14362;51.902;7.626;2022-07-23T00:15:23;101264.34;;;17.19;100.00
26775;BME280;14362;51.902;7.626;2022-07-23T00:19:25;101272.81;;;17.19;100.00
26775;BME280;14362;51.902;7.626;2022-07-23T00:23:26;101272.13;;;17.10;100.00
26775;BME280;14362;51.902;7.626;2022-07-23T00:27:29;101265.31;;;16.99;100.00
26775;BME280;14362;51.902;7.626;2022-07-23T00:31:32;101253.47;;;16.93;100.00
26775;BME280;14362;51.902;7.626;2022-07-23T00:35:34;101256.09;;;16.86;100.00
26775;BME280;14362;51.902;7.626;2022-07-23T00:39:36;101234.97;;;16.80;100.00
26775;BME280;14362;51.902;7.626;2022-07-23T00:43:37;101230.72;;;16.98;100.00
26775;BME280;14362;51.902;7.626;2022-07-23T00:47:40;101232.97;;;16.81;100.00
26775;BME280;14362;51.902;7.626;2022-07-23T00:51:42;101230.75;;;16.74;100.00
26775;BME280;14362;51.902;7.626;2022-07-23T00:55:43;101221.97;;;16.76;100.00
26775;BME280;14362;51.902;7.626;2022-07-23T00:59:45;101228.31;;;16.73;100.00
26775;BME280;14362;51.902;7.626;2022-07-23T01:03:47;101215.97;;;16.77;100.00
26775;BME280;14362;51.902;7.626;2022-07-23T01:07:49;101203.91;;;16.77;100.00
26775;BME280;14362;51.902;7.626;2022-07-23T01:11:51;101208.13;;;16.71;100.00
26775;BME280;14362;51.902;7.626;2022-07-23T01:15:55;101205.53;;;16.66;100.00
26775;BME280;14362;51.902;7.626;2022-07-23T01:19:58;101208.25;;;16.62;100.00
26775;BME280;14362;51.902;7.626;2022-07-23T01:24:01;101197.03;;;16.50;100.00
26775;BME280;14362;51.902;7.626;2022-07-23T01:28:02;101211.19;;;16.42;100.00
26775;BME280;14362;51.902;7.626;2022-07-23T01:32:04;101211.31;;;16.45;100.00
26775;BME280;14362;51.902;7.626;2022-07-23T01:36:07;101203.81;;;16.49;100.00
26775;BME280;14362;51.902;7.626;2022-07-23T01:40:10;101210.47;;;16.45;100.00
26775;BME280;14362;51.902;7.626;2022-07-23T01:44:11;101213.19;;;16.42;100.00
26775;BME280;14362;51.902;7.626;2022-07-23T01:48:13;101219.06;;;16.48;100.00
26775;BME280;14362;51.902;7.626;2022-07-23T01:52:14;101221.63;;;16.53;100.00
26775;BME280;14362;51.902;7.626;2022-07-23T01:56:17;101224.06;;;16.43;100.00
26775;BME280;14362;51.902;7.626;2022-07-23T02:00:21;101223.84;;;16.36;100.00
26775;BME280;14362;51.902;7.626;2022-07-23T02:04:23;101224.66;;;16.37;100.00
26775;BME280;14362;51.902;7.626;2022-07-23T02:08:25;101217.28;;;16.32;100.00
26775;BME280;14362;51.902;7.626;2022-07-23T02:12:28;101208.38;;;16.42;100.00
26775;BME280;14362;51.902;7.626;2022-07-23T02:16:29;101217.53;;;16.39;100.00
26775;BME280;14362;51.902;7.626;2022-07-23T02:20:31;101212.81;;;16.43;100.00
26775;BME280;14362;51.902;7.626;2022-07-23T02:24:32;101208.84;;;16.32;100.00
26775;BME280;14362;51.902;7.626;2022-07-23T02:28:35;101208.34;;;16.30;100.00
26775;BME280;14362;51.902;7.626;2022-07-23T02:32:37;101213.03;;;16.26;100.00
26775;BME280;14362;51.902;7.626;2022-07-23T02:36:39;101199.91;;;16.30;100.00
26775;BME280;14362;51.902;7.626;2022-07-23T02:40:41;101208.81;;;16.20;100.00
26775;BME280;14362;51.902;7.626;2022-07-23T02:44:44;101209.63;;;16.21;100.00
26775;BME280;14362;51.902;7.626;2022-07-23T02:48:45;101204.22;;;16.16;100.00
26775;BME280;14362;51.902;7.626;2022-07-23T02:52:47;101203.06;;;16.17;100.00
26775;BME280;14362;51.902;7.626;2022-07-23T02:56:48;101200.81;;;16.10;100.00
26775;BME280;14362;51.902;7.626;2022-07-23T03:00:52;101208.50;;;15.89;100.00
26775;BME280;14362;51.902;7.626;2022-07-23T03:04:53;101206.53;;;15.90;100.00
26775;BME280;14362;51.902;7.626;2022-07-23T03:08:55;101210.25;;;15.82;100.00
26775;BME280;14362;51.902;7.626;2022-07-23T03:12:56;101207.56;;;15.85;100.00
26775;BME280;14362;51.902;7.626;2022-07-23T03:16:59;101192.97;;;15.92;100.00
26775;BME280;14362;51.902;7.626;2022-07-23T03:21:01;101205.72;;;15.89;100.00
26775;BME280;14362;51.902;7.626;2022-07-23T03:25:02;101208.41;;;15.86;100.00
26775;BME280;14362;51.902;7.626;2022-07-23T03:29:04;101200.31;;;15.84;100.00
26775;BME280;14362;51.902;7.626;2022-07-23T03:33:07;101190.19;;;15.71;100.00
26775;BME280;14362;51.902;7.626;2022-07-23T03:37:08;101196.56;;;15.80;100.00
26775;BME280;14362;51.902;7.626;2022-07-23T03:41:10;101204.41;;;15.75;100.00
26775;BME280;14362;51.902;7.626;2022-07-23T03:45:11;101191.84;;;15.72;100.00
26775;BME280;14362;51.902;7.626;2022-07-23T03:49:14;101195.97;;;15.75;100.00
26775;BME280;14362;51.902;7.626;2022-07-23T03:53:16;101202.72;;;15.62;100.00
26775;BME280;14362;51.902;7.626;2022-07-23T03:57:17;101202.97;;;15.69;100.00
26775;BME280;14362;51.902;7.626;2022-07-23T04:01:18;101200.63;;;15.71;100.00
26775;BME280;14362;51.902;7.626;2022-07-23T04:05:21;101206.84;;;15.76;100.00
26775;BME280;14362;51.902;7.626;2022-07-23T04:09:23;101206.34;;;15.62;100.00
26775;BME280;14362;51.902;7.626;2022-07-23T04:13:24;101206.56;;;15.57;100.00
26775;BME280;14362;51.902;7.626;2022-07-23T04:17:26;101206.47;;;15.66;100.00
26775;BME280;14362;51.902;7.626;2022-07-23T04:21:30;101198.16;;;15.69;100.00
26775;BME280;14362;51.902;7.626;2022-07-23T04:25:31;101200.72;;;15.62;100.00
26775;BME280;14362;51.902;7.626;2022-07-23T04:29:32;101207.72;;;15.56;100.00
26775;BME280;14362;51.902;7.626;2022-07-23T04:33:34;101208.91;;;15.67;100.00
26775;BME280;14362;51.902;7.626;2022-07-23T04:37:37;101202.28;;;15.72;100.00
26775;BME280;14362;51.902;7.626;2022-07-23T04:41:38;101218.06;;;15.64;100.00
26775;BME280;14362;51.902;7.626;2022-07-23T04:45:40;101210.34;;;15.73;100.00
26775;BME280;14362;51.902;7.626;2022-07-23T04:49:41;101214.44;;;15.76;100.00
26775;BME280;14362;51.902;7.626;2022-07-23T04:53:44;101217.19;;;15.84;100.00
26775;BME280;14362;51.902;7.626;2022-07-23T04:57:45;101213.75;;;15.79;100.00
26775;BME280;14362;51.902;7.626;2022-07-23T05:01:47;101219.84;;;15.81;100.00
26775;BME280;14362;51.902;7.626;2022-07-23T05:05:48;101222.34;;;15.82;100.00
26775;BME280;14362;51.902;7.626;2022-07-23T05:09:51;101222.00;;;15.96;100.00
26775;BME280;14362;51.902;7.626;2022-07-23T05:13:53;101236.31;;;16.03;100.00
26775;BME280;14362;51.902;7.626;2022-07-23T05:17:54;101237.97;;;16.04;100.00
26775;BME280;14362;51.902;7.626;2022-07-23T05:21:55;101241.94;;;16.15;100.00
26775;BME280;14362;51.902;7.626;2022-07-23T05:25:58;101232.25;;;16.24;100.00
26775;BME280;14362;51.902;7.626;2022-07-23T05:30:00;101246.69;;;16.35;100.00
26775;BME280;14362;51.902;7.626;2022-07-23T05:34:01;101238.16;;;16.31;100.00
26775;BME280;14362;51.902;7.626;2022-07-23T05:38:03;101248.47;;;16.51;100.00
26775;BME280;14362;51.902;7.626;2022-07-23T05:42:05;101256.31;;;16.81;100.00
26775;BME280;14362;51.902;7.626;2022-07-23T05:46:07;101246.94;;;17.41;100.00
26775;BME280;14362;51.902;7.626;2022-07-23T05:50:10;101254.31;;;18.15;100.00
26775;BME280;14362;51.902;7.626;2022-07-23T05:54:11;101261.06;;;18.88;100.00
26775;BME280;14362;51.902;7.626;2022-07-23T05:58:14;101263.75;;;19.31;100.00
26775;BME280;14362;51.902;7.626;2022-07-23T06:02:16;101251.47;;;19.42;100.00
26775;BME280;14362;51.902;7.626;2022-07-23T06:06:17;101266.28;;;19.55;100.00
26775;BME280;14362;51.902;7.626;2022-07-23T06:10:19;101275.44;;;20.46;100.00
26775;BME280;14362;51.902;7.626;2022-07-23T06:14:21;101273.34;;;20.65;98.52
26775;BME280;14362;51.902;7.626;2022-07-23T06:18:23;101272.53;;;20.65;98.42
26775;BME280;14362;51.902;7.626;2022-07-23T06:22:24;101273.94;;;20.11;100.00
26775;BME280;14362;51.902;7.626;2022-07-23T06:26:26;101278.63;;;19.84;100.00
26775;BME280;14362;51.902;7.626;2022-07-23T06:30:29;101279.00;;;19.45;100.00
26775;BME280;14362;51.902;7.626;2022-07-23T06:34:30;101284.13;;;19.21;100.00
26775;BME280;14362;51.902;7.626;2022-07-23T06:38:32;101289.69;;;19.02;100.00
26775;BME280;14362;51.902;7.626;2022-07-23T06:42:33;101293.03;;;19.07;100.00
26775;BME280;14362;51.902;7.626;2022-07-23T06:46:38;101305.16;;;19.08;100.00
26775;BME280;14362;51.902;7.626;2022-07-23T06:50:39;101310.28;;;19.18;100.00
26775;BME280;14362;51.902;7.626;2022-07-23T06:54:41;101315.53;;;19.35;100.00
26775;BME280;14362;51.902;7.626;2022-07-23T06:58:42;101313.31;;;19.44;100.00
26775;BME280;14362;51.902;7.626;2022-07-23T07:02:45;101311.38;;;19.48;100.00
26775;BME280;14362;51.902;7.626;2022-07-23T07:06:46;101317.25;;;19.58;100.00
26775;BME280;14362;51.902;7.626;2022-07-23T07:10:48;101316.25;;;19.66;100.00
26775;BME280;14362;51.902;7.626;2022-07-23T07:14:49;101308.56;;;19.66;100.00
26775;BME280;14362;51.902;7.626;2022-07-23T07:18:52;101305.22;;;19.80;100.00
26775;BME280;14362;51.902;7.626;2022-07-23T07:22:54;101312.59;;;19.84;97.07
26775;BME280;14362;51.902;7.626;2022-07-23T07:26:55;101311.09;;;19.71;99.95
26775;BME280;14362;51.902;7.626;2022-07-23T07:30:56;101317.06;;;19.66;97.71
26775;BME280;14362;51.902;7.626;2022-07-23T07:34:59;101308.13;;;19.64;96.66
26775;BME280;14362;51.902;7.626;2022-07-23T07:39:01;101317.16;;;19.70;95.23
26775;BME280;14362;51.902;7.626;2022-07-23T07:43:02;101326.81;;;19.50;94.66
26775;BME280;14362;51.902;7.626;2022-07-23T07:47:04;101324.59;;;19.25;92.20
26775;BME280;14362;51.902;7.626;2022-07-23T07:51:07;101321.19;;;19.35;91.60
26775;BME280;14362;51.902;7.626;2022-07-23T07:55:10;101336.38;;;19.46;94.04
26775;BME280;14362;51.902;7.626;2022-07-23T07:59:12;101328.56;;;19.39;95.69
26775;BME280;14362;51.902;7.626;2022-07-23T08:03:14;101336.56;;;19.71;95.45
26775;BME280;14362;51.902;7.626;2022-07-23T08:07:18;101323.31;;;19.75;88.81
26775;BME280;14362;51.902;7.626;2022-07-23T08:11:19;101339.78;;;19.36;93.93
26775;BME280;14362;51.902;7.626;2022-07-23T08:15:21;101340.31;;;19.41;91.48
26775;BME280;14362;51.902;7.626;2022-07-23T08:19:23;101343.63;;;19.62;89.67
26775;BME280;14362;51.902;7.626;2022-07-23T08:23:26;101346.69;;;19.72;89.45
26775;BME280;14362;51.902;7.626;2022-07-23T08:27:27;101350.88;;;19.78;89.29
26775;BME280;14362;51.902;7.626;2022-07-23T08:31:28;101356.38;;;19.90;87.33
26775;BME280;14362;51.902;7.626;2022-07-23T08:35:32;101367.41;;;19.95;87.38
26775;BME280;14362;51.902;7.626;2022-07-23T08:39:35;101362.31;;;19.66;91.58
26775;BME280;14362;51.902;7.626;2022-07-23T08:43:36;101362.66;;;19.80;90.63
26775;BME280;14362;51.902;7.626;2022-07-23T08:47:38;101357.53;;;20.05;89.23
26775;BME280;14362;51.902;7.626;2022-07-23T08:51:40;101351.78;;;20.20;83.98
26775;BME280;14362;51.902;7.626;2022-07-23T08:55:44;101361.50;;;20.19;85.02
26775;BME280;14362;51.902;7.626;2022-07-23T08:59:46;101360.22;;;19.98;87.05
26775;BME280;14362;51.902;7.626;2022-07-23T09:03:48;101361.50;;;20.00;84.90
26775;BME280;14362;51.902;7.626;2022-07-23T09:08:14;101364.97;;;20.13;80.81
26775;BME280;14362;51.902;7.626;2022-07-23T09:12:17;101369.66;;;20.24;80.17
26775;BME280;14362;51.902;7.626;2022-07-23T09:16:20;101372.69;;;20.35;79.52
26775;BME280;14362;51.902;7.626;2022-07-23T09:20:24;101352.97;;;20.38;80.47
26775;BME280;14362;51.902;7.626;2022-07-23T09:24:26;101366.06;;;20.46;81.08
26775;BME280;14362;51.902;7.626;2022-07-23T09:28:28;101368.22;;;20.34;80.92
26775;BME280;14362;51.902;7.626;2022-07-23T09:32:30;101370.63;;;20.32;81.25
26775;BME280;14362;51.902;7.626;2022-07-23T09:36:31;101371.22;;;20.22;75.62
26775;BME280;14362;51.902;7.626;2022-07-23T09:40:33;101364.94;;;20.32;78.43
26775;BME280;14362;51.902;7.626;2022-07-23T09:44:40;101363.91;;;20.40;77.62
26775;BME280;14362;51.902;7.626;2022-07-23T09:48:42;101355.69;;;20.54;74.12
26775;BME280;14362;51.902;7.626;2022-07-23T09:52:45;101361.22;;;20.47;74.81
26775;BME280;14362;51.902;7.626;2022-07-23T09:56:48;101352.03;;;20.53;76.71
26775;BME280;14362;51.902;7.626;2022-07-23T10:00:51;101356.72;;;20.64;75.20
26775;BME280;14362;51.902;7.626;2022-07-23T10:04:54;101362.00;;;20.66;74.50
26775;BME280;14362;51.902;7.626;2022-07-23T10:08:58;101361.94;;;20.63;74.05
26775;BME280;14362;51.902;7.626;2022-07-23T10:13:00;101373.91;;;20.75;72.85
26775;BME280;14362;51.902;7.626;2022-07-23T10:17:21;101368.03;;;20.83;70.13
26775;BME280;14362;51.902;7.626;2022-07-23T10:21:26;101368.25;;;20.97;70.75
26775;BME280;14362;51.902;7.626;2022-07-23T10:25:32;101367.22;;;20.86;70.56
26775;BME280;14362;51.902;7.626;2022-07-23T10:29:45;101361.50;;;21.05;71.44
26775;BME280;14362;51.902;7.626;2022-07-23T10:33:54;101356.72;;;21.09;70.59
26775;BME280;14362;51.902;7.626;2022-07-23T10:38:02;101358.84;;;21.16;68.73
26775;BME280;14362;51.902;7.626;2022-07-23T10:42:12;101359.53;;;21.32;70.53
26775;BME280;14362;51.902;7.626;2022-07-23T10:46:24;101352.78;;;21.43;67.38
26775;BME280;14362;51.902;7.626;2022-07-23T10:50:36;101354.44;;;21.44;68.51
26775;BME280;14362;51.902;7.626;2022-07-23T10:54:38;101349.03;;;21.58;66.00
26775;BME280;14362;51.902;7.626;2022-07-23T10:58:48;101344.06;;;21.55;68.50
26775;BME280;14362;51.902;7.626;2022-07-23T11:02:51;101346.97;;;21.59;66.87
26775;BME280;14362;51.902;7.626;2022-07-23T11:07:10;101357.69;;;21.69;66.28
26775;BME280;14362;51.902;7.626;2022-07-23T11:11:12;101351.16;;;21.97;61.81
26775;BME280;14362;51.902;7.626;2022-07-23T11:15:14;101357.88;;;21.82;62.83
26775;BME280;14362;51.902;7.626;2022-07-23T11:19:15;101350.16;;;21.83;63.63
26775;BME280;14362;51.902;7.626;2022-07-23T11:23:18;101352.25;;;21.89;65.86
26775;BME280;14362;51.902;7.626;2022-07-23T11:27:36;101354.53;;;22.06;62.12
26775;BME280;14362;51.902;7.626;2022-07-23T11:31:51;101351.03;;;22.20;65.22
26775;BME280;14362;51.902;7.626;2022-07-23T11:36:02;101350.91;;;22.09;62.89
26775;BME280;14362;51.902;7.626;2022-07-23T11:40:09;101349.34;;;22.12;62.77
26775;BME280;14362;51.902;7.626;2022-07-23T11:44:24;101342.66;;;22.30;62.49
26775;BME280;14362;51.902;7.626;2022-07-23T11:48:26;101337.50;;;22.36;62.69
26775;BME280;14362;51.902;7.626;2022-07-23T11:52:29;101337.97;;;22.45;61.48
26775;BME280;14362;51.902;7.626;2022-07-23T11:56:32;101332.50;;;22.66;60.60
26775;BME280;14362;51.902;7.626;2022-07-23T12:00:33;101335.03;;;22.74;59.84
26775;BME280;14362;51.902;7.626;2022-07-23T12:04:38;101338.75;;;22.81;61.17
26775;BME280;14362;51.902;7.626;2022-07-23T12:08:41;101336.78;;;22.89;60.31
26775;BME280;14362;51.902;7.626;2022-07-23T12:12:45;101341.38;;;23.04;60.21
26775;BME280;14362;51.902;7.626;2022-07-23T12:17:07;101340.25;;;23.08;58.29
26775;BME280;14362;51.902;7.626;2022-07-23T12:21:08;101339.28;;;22.94;59.35
26775;BME280;14362;51.902;7.626;2022-07-23T12:25:11;101334.88;;;23.00;58.98
26775;BME280;14362;51.902;7.626;2022-07-23T12:29:14;101332.16;;;23.10;58.99
26775;BME280;14362;51.902;7.626;2022-07-23T12:33:22;101331.81;;;23.19;60.40
26775;BME280;14362;51.902;7.626;2022-07-23T12:37:26;101335.97;;;23.35;56.57
26775;BME280;14362;51.902;7.626;2022-07-23T12:41:51;101329.97;;;23.47;58.88
26775;BME280;14362;51.902;7.626;2022-07-23T12:45:54;101337.31;;;23.48;58.31
26775;BME280;14362;51.902;7.626;2022-07-23T12:49:56;101334.41;;;23.41;56.16
26775;BME280;14362;51.902;7.626;2022-07-23T12:53:59;101342.22;;;23.55;56.42
26775;BME280;14362;51.902;7.626;2022-07-23T12:58:13;101337.31;;;23.48;54.83
26775;BME280;14362;51.902;7.626;2022-07-23T13:02:17;101334.41;;;23.45;56.13
26775;BME280;14362;51.902;7.626;2022-07-23T13:06:19;101328.34;;;23.50;60.36
26775;BME280;14362;51.902;7.626;2022-07-23T13:10:20;101340.72;;;23.75;55.83
26775;BME280;14362;51.902;7.626;2022-07-23T13:14:24;101339.97;;;23.84;55.02
26775;BME280;14362;51.902;7.626;2022-07-23T13:18:28;101344.44;;;23.85;55.52
26775;BME280;14362;51.902;7.626;2022-07-23T13:22:30;101338.00;;;23.95;53.15
26775;BME280;14362;51.902;7.626;2022-07-23T13:26:31;101351.84;;;24.00;52.64
26775;BME280;14362;51.902;7.626;2022-07-23T13:30:33;101355.53;;;24.08;53.46
26775;BME280;14362;51.902;7.626;2022-07-23T13:34:36;101357.22;;;24.16;51.88
26775;BME280;14362;51.902;7.626;2022-07-23T13:38:38;101339.31;;;24.22;52.34
26775;BME280;14362;51.902;7.626;2022-07-23T13:42:39;101350.38;;;24.41;51.74
26775;BME280;14362;51.902;7.626;2022-07-23T13:46:41;101349.16;;;24.42;52.22
26775;BME280;14362;51.902;7.626;2022-07-23T13:50:44;101338.66;;;24.53;51.31
26775;BME280;14362;51.902;7.626;2022-07-23T13:54:47;101344.75;;;24.59;52.96
26775;BME280;14362;51.902;7.626;2022-07-23T13:58:48;101337.44;;;24.72;50.60
26775;BME280;14362;51.902;7.626;2022-07-23T14:02:50;101338.66;;;24.67;51.88
26775;BME280;14362;51.902;7.626;2022-07-23T14:06:52;101321.56;;;24.67;52.89
26775;BME280;14362;51.902;7.626;2022-07-23T14:10:54;101330.53;;;24.87;52.90
26775;BME280;14362;51.902;7.626;2022-07-23T14:14:56;101336.69;;;25.16;50.69
26775;BME280;14362;51.902;7.626;2022-07-23T14:18:58;101330.13;;;25.12;48.76
26775;BME280;14362;51.902;7.626;2022-07-23T14:23:00;101329.34;;;25.26;50.30
26775;BME280;14362;51.902;7.626;2022-07-23T14:27:03;101332.59;;;25.35;46.54
26775;BME280;14362;51.902;7.626;2022-07-23T14:31:06;101337.09;;;25.29;49.03
26775;BME280;14362;51.902;7.626;2022-07-23T14:35:07;101338.72;;;25.33;48.16
26775;BME280;14362;51.902;7.626;2022-07-23T14:39:10;101335.03;;;25.33;49.49
26775;BME280;14362;51.902;7.626;2022-07-23T14:43:12;101335.00;;;25.43;47.94
26775;BME280;14362;51.902;7.626;2022-07-23T14:47:14;101326.44;;;25.54;49.46
26775;BME280;14362;51.902;7.626;2022-07-23T14:51:16;101331.34;;;25.53;48.71
26775;BME280;14362;51.902;7.626;2022-07-23T14:55:18;101318.28;;;25.52;47.81
26775;BME280;14362;51.902;7.626;2022-07-23T14:59:20;101323.19;;;25.41;48.60
26775;BME280;14362;51.902;7.626;2022-07-23T15:03:22;101324.84;;;25.46;47.20
26775;BME280;14362;51.902;7.626;2022-07-23T15:07:24;101330.13;;;25.37;47.39
26775;BME280;14362;51.902;7.626;2022-07-23T15:11:27;101324.81;;;25.53;47.09
26775;BME280;14362;51.902;7.626;2022-07-23T15:15:31;101309.25;;;25.68;46.98
26775;BME280;14362;51.902;7.626;2022-07-23T15:19:32;101316.63;;;25.62;47.06
26775;BME280;14362;51.902;7.626;2022-07-23T15:23:34;101317.44;;;25.62;46.72
26775;BME280;14362;51.902;7.626;2022-07-23T15:27:38;101313.41;;;25.56;47.68
26775;BME280;14362;51.902;7.626;2022-07-23T15:31:39;101320.31;;;25.59;46.17
26775;BME280;14362;51.902;7.626;2022-07-23T15:35:41;101320.34;;;25.06;47.34
26775;BME280;14362;51.902;7.626;2022-07-23T15:39:42;101316.69;;;24.88;47.86
26775;BME280;14362;51.902;7.626;2022-07-23T15:43:45;101320.34;;;24.86;49.66
26775;BME280;14362;51.902;7.626;2022-07-23T15:47:47;101313.84;;;24.95;49.61
26775;BME280;14362;51.902;7.626;2022-07-23T15:51:49;101315.06;;;24.91;48.87
26775;BME280;14362;51.902;7.626;2022-07-23T15:55:50;101308.53;;;24.94;49.13
26775;BME280;14362;51.902;7.626;2022-07-23T15:59:53;101314.25;;;24.97;48.55
26775;BME280;14362;51.902;7.626;2022-07-23T16:03:56;101312.59;;;24.89;48.07
26775;BME280;14362;51.902;7.626;2022-07-23T16:07:59;101309.75;;;24.79;48.72
26775;BME280;14362;51.902;7.626;2022-07-23T16:12:01;101315.88;;;24.91;49.50
26775;BME280;14362;51.902;7.626;2022-07-23T16:16:04;101310.56;;;24.76;49.00
26775;BME280;14362;51.902;7.626;2022-07-23T16:20:06;101306.50;;;24.88;48.59
26775;BME280;14362;51.902;7.626;2022-07-23T16:24:08;101311.75;;;24.65;49.75
26775;BME280;14362;51.902;7.626;2022-07-23T16:28:10;101304.84;;;24.73;49.90
26775;BME280;14362;51.902;7.626;2022-07-23T16:32:13;101302.00;;;24.69;50.96
26775;BME280;14362;51.902;7.626;2022-07-23T16:36:15;101303.19;;;24.54;50.95
26775;BME280;14362;51.902;7.626;2022-07-23T16:40:17;101304.06;;;24.72;51.51
26775;BME280;14362;51.902;7.626;2022-07-23T16:44:19;101311.38;;;24.63;51.63
26775;BME280;14362;51.902;7.626;2022-07-23T16:48:21;101316.28;;;24.69;50.02
26775;BME280;14362;51.902;7.626;2022-07-23T16:52:23;101308.91;;;24.65;51.02
26775;BME280;14362;51.902;7.626;2022-07-23T16:56:24;101310.94;;;24.57;50.81
26775;BME280;14362;51.902;7.626;2022-07-23T17:00:26;101314.63;;;24.58;51.50
26775;BME280;14362;51.902;7.626;2022-07-23T17:04:29;101315.84;;;24.60;51.47
26775;BME280;14362;51.902;7.626;2022-07-23T17:08:30;101307.69;;;24.62;52.45
26775;BME280;14362;51.902;7.626;2022-07-23T17:12:32;101312.59;;;24.72;51.48
26775;BME280;14362;51.902;7.626;2022-07-23T17:16:34;101315.84;;;24.67;52.03
26775;BME280;14362;51.902;7.626;2022-07-23T17:20:36;101316.25;;;24.66;52.02
26775;BME280;14362;51.902;7.626;2022-07-23T17:24:38;101317.88;;;24.63;52.58
26775;BME280;14362;51.902;7.626;2022-07-23T17:28:39;101321.53;;;24.53;52.56
26775;BME280;14362;51.902;7.626;2022-07-23T17:32:41;101324.81;;;24.62;51.83
26775;BME280;14362;51.902;7.626;2022-07-23T17:36:44;101329.25;;;24.49;52.43
26775;BME280;14362;51.902;7.626;2022-07-23T17:40:46;101325.13;;;24.43;52.74
26775;BME280;14362;51.902;7.626;2022-07-23T17:44:47;101317.00;;;24.42;52.94
26775;BME280;14362;51.902;7.626;2022-07-23T17:48:49;101319.81;;;24.35;54.68
26775;BME280;14362;51.902;7.626;2022-07-23T17:52:54;101305.56;;;24.31;52.74
26775;BME280;14362;51.902;7.626;2022-07-23T17:56:55;101307.63;;;24.34;54.10
26775;BME280;14362;51.902;7.626;2022-07-23T18:00:57;101321.47;;;24.36;53.12
26775;BME280;14362;51.902;7.626;2022-07-23T18:04:58;101321.38;;;24.15;52.95
26775;BME280;14362;51.902;7.626;2022-07-23T18:09:01;101322.63;;;24.24;53.68
26775;BME280;14362;51.902;7.626;2022-07-23T18:13:04;101333.25;;;24.27;52.72
26775;BME280;14362;51.902;7.626;2022-07-23T18:17:07;101330.25;;;23.96;53.37
26775;BME280;14362;51.902;7.626;2022-07-23T18:21:08;101324.91;;;23.81;54.65
26775;BME280;14362;51.902;7.626;2022-07-23T18:25:11;101326.44;;;23.68;55.35
26775;BME280;14362;51.902;7.626;2022-07-23T18:29:13;101330.44;;;23.56;56.12
26775;BME280;14362;51.902;7.626;2022-07-23T18:33:14;101328.38;;;23.53;56.66
26775;BME280;14362;51.902;7.626;2022-07-23T18:37:16;101338.03;;;23.42;57.95
26775;BME280;14362;51.902;7.626;2022-07-23T18:41:20;101342.44;;;23.32;58.15
26775;BME280;14362;51.902;7.626;2022-07-23T18:45:22;101343.63;;;23.24;58.10
26775;BME280;14362;51.902;7.626;2022-07-23T18:49:23;101341.91;;;23.13;58.86
26775;BME280;14362;51.902;7.626;2022-07-23T18:53:25;101344.66;;;23.06;59.01
26775;BME280;14362;51.902;7.626;2022-07-23T18:57:28;101336.09;;;22.99;58.86
26775;BME280;14362;51.902;7.626;2022-07-23T19:01:29;101340.06;;;22.91;59.12
26775;BME280;14362;51.902;7.626;2022-07-23T19:05:31;101340.38;;;22.79;60.68
26775;BME280;14362;51.902;7.626;2022-07-23T19:09:33;101337.00;;;22.70;61.28
26775;BME280;14362;51.902;7.626;2022-07-23T19:13:36;101341.00;;;22.62;61.96
26775;BME280;14362;51.902;7.626;2022-07-23T19:17:38;101349.00;;;22.50;64.42
26775;BME280;14362;51.902;7.626;2022-07-23T19:21:39;101346.91;;;22.43;65.03
26775;BME280;14362;51.902;7.626;2022-07-23T19:25:41;101352.31;;;22.22;66.67
26775;BME280;14362;51.902;7.626;2022-07-23T19:29:43;101350.53;;;22.11;68.06
26775;BME280;14362;51.902;7.626;2022-07-23T19:33:45;101360.56;;;22.01;69.02
26775;BME280;14362;51.902;7.626;2022-07-23T19:37:47;101358.75;;;21.86;69.85
26775;BME280;14362;51.902;7.626;2022-07-23T19:41:48;101365.50;;;21.78;69.05
26775;BME280;14362;51.902;7.626;2022-07-23T19:45:51;101365.84;;;21.73;70.40
26775;BME280;14362;51.902;7.626;2022-07-23T19:49:52;101368.97;;;21.65;69.63
26775;BME280;14362;51.902;7.626;2022-07-23T19:53:54;101366.84;;;21.59;73.13
26775;BME280;14362;51.902;7.626;2022-07-23T19:57:55;101381.16;;;21.43;73.25
26775;BME280;14362;51.902;7.626;2022-07-23T20:01:58;101374.19;;;21.37;75.02
26775;BME280;14362;51.902;7.626;2022-07-23T20:06:00;101371.00;;;21.16;75.07
26775;BME280;14362;51.902;7.626;2022-07-23T20:10:03;101376.50;;;21.06;75.07
26775;BME280;14362;51.902;7.626;2022-07-23T20:14:05;101384.13;;;21.02;75.62
26775;BME280;14362;51.902;7.626;2022-07-23T20:18:09;101376.94;;;20.85;75.96
26775;BME280;14362;51.902;7.626;2022-07-23T20:22:10;101374.78;;;20.79;75.73
26775;BME280;14362;51.902;7.626;2022-07-23T20:26:12;101378.25;;;20.69;78.04
26775;BME280;14362;51.902;7.626;2022-07-23T20:30:13;101371.19;;;20.60;78.08
26775;BME280;14362;51.902;7.626;2022-07-23T20:34:16;101366.56;;;20.52;78.01
26775;BME280;14362;51.902;7.626;2022-07-23T20:38:18;101374.03;;;20.41;77.86
26775;BME280;14362;51.902;7.626;2022-07-23T20:42:19;101378.00;;;20.36;78.95
26775;BME280;14362;51.902;7.626;2022-07-23T20:46:21;101382.59;;;20.44;80.87
26775;BME280;14362;51.902;7.626;2022-07-23T20:50:24;101387.38;;;20.21;81.12
26775;BME280;14362;51.902;7.626;2022-07-23T20:54:26;101382.78;;;20.13;82.52
26775;BME280;14362;51.902;7.626;2022-07-23T20:58:28;101385.84;;;20.05;83.90
26775;BME280;14362;51.902;7.626;2022-07-23T21:02:29;101386.13;;;20.00;85.67